createdAt,value
2022-11-29T00:01:51.306Z,100698.84
2022-11-29T00:03:54.654Z,100694.44
2022-11-29T00:05:57.513Z,100691.09
2022-11-29T00:07:59.696Z,100694.69
2022-11-29T00:10:02.508Z,100698.06
2022-11-29T09:23:12.126Z,100586.22
2022-11-29T09:25:14.790Z,100779.31
2022-11-29T09:27:17.010Z,100781.81
2022-11-29T09:29:19.268Z,100780.84
2022-11-29T09:31:22.042Z,100787.66
2022-11-29T09:33:24.355Z,100795.09
2022-11-29T09:35:26.622Z,100809.50
2022-11-29T09:37:29.116Z,100822.22
2022-11-29T09:39:31.740Z,100836.09
2022-11-29T09:42:01.062Z,100846.56
2022-11-29T09:44:08.863Z,100855.22
2022-11-29T09:46:23.244Z,100855.19
2022-11-29T09:48:42.141Z,100841.19
2022-11-29T09:51:24.228Z,100856.53
2022-11-29T09:53:29.295Z,100845.59
2022-11-29T09:56:04.723Z,100869.88
2022-11-29T09:58:13.998Z,100861.84
2022-11-29T10:00:20.123Z,100891.72
2022-11-29T10:02:33.135Z,100904.78
2022-11-29T10:04:45.053Z,100906.03
2022-11-29T10:06:58.295Z,100926.59
2022-11-29T10:09:05.637Z,100926.44
2022-11-29T10:11:35.221Z,100944.03
2022-11-29T10:13:39.395Z,100956.78
2022-11-29T10:15:45.759Z,100961.94
2022-11-29T10:18:05.130Z,100939.13
2022-11-29T10:20:26.079Z,100932.81
2022-11-29T10:22:58.098Z,100929.44
2022-11-29T10:25:02.749Z,100922.19
2022-11-29T10:27:15.722Z,100916.53
2022-11-29T10:29:18.387Z,100900.47
2022-11-29T10:31:25.121Z,100888.56
2022-11-29T10:33:32.929Z,100874.75
2022-11-29T10:35:35.406Z,100868.69
2022-11-29T10:37:38.534Z,100860.59
2022-11-29T10:39:58.717Z,100876.53
2022-11-29T10:42:03.647Z,100873.09
2022-11-29T10:44:06.058Z,100871.75
2022-11-29T10:46:15.768Z,100882.19
2022-11-29T10:48:21.998Z,100889.03
2022-11-29T10:50:30.850Z,100890.75
2022-11-29T10:52:33.967Z,100878.81
2022-11-29T10:54:44.547Z,100887.63
2022-11-29T10:56:48.014Z,100878.31
2022-11-29T10:59:03.088Z,100871.91
2022-11-29T11:01:07.747Z,100872.84
2022-11-29T11:03:31.108Z,100864.37
2022-11-29T11:05:33.366Z,100855.19
2022-11-29T11:07:36.505Z,100854.84
2022-11-29T11:09:48.763Z,100854.75
2022-11-29T11:11:53.990Z,100860.59
2022-11-29T11:14:20.611Z,100866.47
2022-11-29T11:16:24.848Z,100878.47
2022-11-29T11:18:29.244Z,100880.19
2022-11-29T11:20:33.941Z,100885.13
2022-11-29T11:22:39.916Z,100872.84
2022-11-29T11:24:44.780Z,100874.50
2022-11-29T11:26:47.555Z,100873.38
2022-11-29T11:28:58.378Z,100866.47
2022-11-29T11:31:04.507Z,100872.03
2022-11-29T11:33:07.012Z,100856.19
2022-11-29T11:35:23.400Z,100856.81
2022-11-29T11:37:29.667Z,100854.22
2022-11-29T11:39:32.457Z,100860.37
2022-11-29T11:42:01.032Z,100845.53
2022-11-29T11:44:07.133Z,100850.28
2022-11-29T11:46:18.306Z,100852.22
2022-11-29T11:48:21.702Z,100851.28
2022-11-29T11:50:27.700Z,100854.06
2022-11-29T11:52:38.309Z,100859.84
2022-11-29T11:54:48.091Z,100850.50
2022-11-29T11:56:50.392Z,100848.06
2022-11-29T11:58:56.903Z,100850.66
2022-11-29T12:01:13.661Z,100846.81
2022-11-29T12:03:51.099Z,100832.94
2022-11-29T12:05:56.950Z,100832.16
2022-11-29T12:08:09.809Z,100824.50
2022-11-29T12:10:20.567Z,100820.91
2022-11-29T12:12:43.366Z,100818.31
2022-11-29T12:14:56.034Z,100819.81
2022-11-29T12:17:20.408Z,100829.09
2022-11-29T12:19:29.045Z,100820.56
2022-11-29T12:21:40.556Z,100821.94
2022-11-29T12:23:54.173Z,100825.59
2022-11-29T12:25:56.378Z,100827.22
2022-11-29T12:27:58.879Z,100826.47
2022-11-29T12:30:01.492Z,100828.78
2022-11-29T12:32:03.716Z,100828.47
2022-11-29T12:34:43.009Z,100824.25
2022-11-29T12:36:57.654Z,100813.16
2022-11-29T12:39:13.205Z,100808.19
2022-11-29T12:41:18.176Z,100801.59
2022-11-29T12:43:54.579Z,100803.53
2022-11-29T12:46:07.217Z,100802.59
2022-11-29T12:48:33.306Z,100810.13
2022-11-29T12:51:21.044Z,100803.25
2022-11-29T12:53:50.465Z,100809.28
2022-11-29T12:56:14.905Z,100812.59
2022-11-29T12:58:26.193Z,100815.63
2022-11-29T13:00:38.167Z,100817.06
2022-11-29T13:02:45.606Z,100819.50
2022-11-29T13:05:09.818Z,100834.63
2022-11-29T13:07:24.192Z,100819.38
2022-11-29T13:09:51.855Z,100818.16
2022-11-29T13:12:05.837Z,100825.69
2022-11-29T13:14:42.215Z,100816.94
2022-11-29T13:16:56.313Z,100813.81
2022-11-29T13:19:18.615Z,100818.16
2022-11-29T13:21:49.184Z,100822.84
2022-11-29T13:24:14.069Z,100822.97
2022-11-29T13:26:17.454Z,100836.06
2022-11-29T13:28:29.255Z,100832.06
2022-11-29T13:30:34.483Z,100820.91
2022-11-29T13:32:44.426Z,100819.28
2022-11-29T13:34:50.077Z,100816.16
2022-11-29T13:37:01.543Z,100819.56
2022-11-29T13:39:14.009Z,100821.22
2022-11-29T13:41:31.336Z,100825.84
2022-11-29T13:43:55.411Z,100825.22
2022-11-29T13:46:16.090Z,100821.53
2022-11-29T13:48:37.673Z,100814.09
2022-11-29T13:50:43.729Z,100797.16
2022-11-29T13:52:48.957Z,100802.34
2022-11-29T13:55:15.527Z,100794.81
2022-11-29T13:57:18.118Z,100791.50
2022-11-29T13:59:28.111Z,100787.75
2022-11-29T14:01:43.824Z,100797.06
2022-11-29T14:04:04.050Z,100801.53
2022-11-29T14:06:21.231Z,100789.66
2022-11-29T14:08:48.017Z,100790.94
2022-11-29T14:10:58.386Z,100794.41
2022-11-29T14:13:01.974Z,100792.84
2022-11-29T14:15:14.786Z,100797.25
2022-11-29T14:17:48.005Z,100794.69
2022-11-29T14:19:50.240Z,100788.84
2022-11-29T14:22:07.366Z,100784.72
2022-11-29T14:24:33.289Z,100777.00
2022-11-29T14:26:35.575Z,100776.31
2022-11-29T14:28:39.655Z,100764.28
2022-11-29T14:30:47.471Z,100758.97
2022-11-29T14:32:56.461Z,100759.97
2022-11-29T14:35:10.877Z,100751.41
2022-11-29T14:37:51.912Z,100753.00
2022-11-29T14:39:57.653Z,100755.37
2022-11-29T14:42:14.420Z,100755.13
2022-11-29T14:44:22.778Z,100761.12
2022-11-29T14:46:30.632Z,100761.19
2022-11-29T14:48:33.858Z,100759.56
2022-11-29T14:50:40.545Z,100759.44
2022-11-29T14:52:52.535Z,100756.16
2022-11-29T14:54:59.617Z,100753.34
2022-11-29T14:57:56.833Z,100759.19
2022-11-29T15:00:01.419Z,100761.56
2022-11-29T15:02:17.771Z,100774.41
2022-11-29T15:04:24.632Z,100775.44
2022-11-29T15:06:28.252Z,100775.38
2022-11-29T15:08:57.478Z,100778.66
2022-11-29T15:11:04.777Z,100780.22
2022-11-29T15:13:11.852Z,100785.50
2022-11-29T15:15:37.547Z,100780.53
2022-11-29T15:17:53.317Z,100784.19
2022-11-29T15:20:04.626Z,100780.97
2022-11-29T15:22:21.198Z,100768.03
2022-11-29T15:24:28.327Z,100764.41
2022-11-29T15:26:32.191Z,100766.78
2022-11-29T15:28:35.037Z,100761.59
2022-11-29T15:30:41.970Z,100769.44
2022-11-29T15:32:44.378Z,100764.22
2022-11-29T15:34:50.541Z,100771.84
2022-11-29T15:36:52.803Z,100782.78
2022-11-29T15:38:57.558Z,100780.28
2022-11-29T15:41:00.125Z,100781.44
2022-11-29T15:43:17.862Z,100774.47
2022-11-29T15:45:33.967Z,100776.91
2022-11-29T15:47:36.567Z,100775.34
2022-11-29T15:49:38.830Z,100779.16
2022-11-29T15:51:41.740Z,100770.53
2022-11-29T15:54:00.422Z,100770.44
2022-11-29T15:56:20.266Z,100769.59
2022-11-29T15:58:23.736Z,100767.75
2022-11-29T16:00:28.216Z,100760.06
2022-11-29T16:02:37.164Z,100755.16
2022-11-29T16:04:46.567Z,100771.47
2022-11-29T16:06:50.191Z,100772.53
2022-11-29T16:08:54.348Z,100773.53
2022-11-29T16:10:57.834Z,100772.63
2022-11-29T16:13:29.298Z,100778.78
2022-11-29T16:15:35.234Z,100777.19
2022-11-29T16:17:37.744Z,100776.03
2022-11-29T16:19:41.602Z,100763.03
2022-11-29T16:21:44.777Z,100769.22
2022-11-29T16:23:47.542Z,100766.47
2022-11-29T16:26:00.876Z,100772.50
2022-11-29T16:28:03.621Z,100768.09
2022-11-29T16:30:06.850Z,100763.31
2022-11-29T16:32:20.825Z,100764.97
2022-11-29T16:34:31.034Z,100767.59
2022-11-29T16:36:33.526Z,100758.91
2022-11-29T16:38:35.842Z,100764.78
2022-11-29T16:40:38.725Z,100769.91
2022-11-29T16:42:41.595Z,100763.09
2022-11-29T16:44:47.521Z,100771.66
2022-11-29T16:47:10.477Z,100778.38
2022-11-29T16:49:36.072Z,100773.94
2022-11-29T16:51:49.273Z,100784.56
2022-11-29T16:53:53.753Z,100782.69
2022-11-29T16:55:56.220Z,100782.75
2022-11-29T16:57:59.037Z,100781.75
2022-11-29T17:00:01.997Z,100791.22
2022-11-29T17:02:10.657Z,100788.56
2022-11-29T17:04:13.100Z,100791.06
2022-11-29T17:06:28.428Z,100794.59
2022-11-29T17:08:33.803Z,100797.81
2022-11-29T17:10:36.455Z,100793.41
2022-11-29T17:12:46.344Z,100790.69
2022-11-29T17:14:50.842Z,100797.62
2022-11-29T17:16:54.460Z,100798.31
2022-11-29T17:18:57.141Z,100805.03
2022-11-29T17:20:59.460Z,100814.69
2022-11-29T17:23:01.778Z,100817.19
2022-11-29T17:25:04.812Z,100814.62
2022-11-29T17:27:08.653Z,100823.16
2022-11-29T17:29:12.512Z,100814.44
2022-11-29T17:31:18.075Z,100818.81
2022-11-29T17:33:24.741Z,100817.94
2022-11-29T17:35:27.250Z,100812.03
2022-11-29T17:37:30.576Z,100818.97
2022-11-29T17:39:33.634Z,100828.44
2022-11-29T17:41:36.054Z,100825.75
2022-11-29T17:43:38.859Z,100823.13
2022-11-29T17:45:41.532Z,100826.72
2022-11-29T17:47:43.881Z,100824.94
2022-11-29T17:49:46.970Z,100822.38
2022-11-29T17:51:52.593Z,100822.50
2022-11-29T17:53:55.765Z,100817.34
2022-11-29T17:56:08.398Z,100816.37
2022-11-29T17:58:11.082Z,100815.66
2022-11-29T18:00:15.701Z,100815.88
2022-11-29T18:02:18.343Z,100811.72
2022-11-29T18:04:20.932Z,100806.31
2022-11-29T18:06:26.108Z,100790.03
2022-11-29T18:08:29.015Z,100795.16
2022-11-29T18:10:32.010Z,100788.16
2022-11-29T18:12:34.815Z,100791.62
2022-11-29T18:14:39.247Z,100790.84
2022-11-29T18:16:42.254Z,100787.34
2022-11-29T18:18:45.836Z,100782.94
2022-11-29T18:20:53.453Z,100785.56
2022-11-29T18:22:56.683Z,100787.25
2022-11-29T18:25:30.171Z,100786.41
2022-11-29T18:27:22.246Z,100793.66
2022-11-29T18:29:24.859Z,100796.19
2022-11-29T18:31:30.448Z,100789.22
2022-11-29T18:33:32.983Z,100791.66
2022-11-29T18:35:36.119Z,100802.97
2022-11-29T18:38:12.832Z,100793.47
2022-11-29T18:40:01.924Z,100805.38
2022-11-29T18:42:04.355Z,100799.97
2022-11-29T18:44:10.732Z,100802.47
2022-11-29T18:46:16.286Z,100814.75
2022-11-29T18:48:19.172Z,100813.06
2022-11-29T18:50:22.085Z,100807.81
2022-11-29T18:52:25.055Z,100813.84
2022-11-29T18:54:29.579Z,100815.50
2022-11-29T18:56:34.736Z,100817.97
2022-11-29T18:58:38.455Z,100823.31
2022-11-29T19:00:41.267Z,100821.81
2022-11-29T19:02:44.037Z,100810.69
2022-11-29T19:04:50.676Z,100813.41
2022-11-29T19:06:53.456Z,100810.19
2022-11-29T19:08:58.883Z,100811.78
2022-11-29T19:11:10.154Z,100805.59
2022-11-29T19:13:12.434Z,100813.19
2022-11-29T19:15:15.649Z,100807.91
2022-11-29T19:17:19.501Z,100809.78
2022-11-29T19:19:23.560Z,100805.44
2022-11-29T19:21:29.036Z,100804.75
2022-11-29T19:23:32.141Z,100816.53
2022-11-29T19:25:35.010Z,100806.28
2022-11-29T19:27:41.220Z,100816.91
2022-11-29T19:29:45.229Z,100810.88
2022-11-29T19:31:50.741Z,100813.28
2022-11-29T19:33:55.019Z,100804.16
2022-11-29T19:36:04.438Z,100806.00
2022-11-29T19:38:07.198Z,100799.69
2022-11-29T19:40:10.070Z,100817.91
2022-11-29T19:42:13.089Z,100809.97
2022-11-29T19:44:15.842Z,100811.53
2022-11-29T19:46:25.021Z,100811.50
2022-11-29T19:48:28.220Z,100812.47
2022-11-29T19:50:30.987Z,100809.25
2022-11-29T19:52:33.360Z,100810.09
2022-11-29T19:54:36.365Z,100806.41
2022-11-29T19:56:40.360Z,100809.53
2022-11-29T19:58:44.029Z,100806.31
2022-11-29T20:00:47.795Z,100805.59
2022-11-29T20:02:50.400Z,100805.50
2022-11-29T20:04:53.590Z,100810.78
2022-11-29T20:06:56.510Z,100808.22
2022-11-29T20:08:59.760Z,100800.19
2022-11-29T20:11:18.808Z,100802.72
2022-11-29T20:13:25.896Z,100803.69
2022-11-29T20:15:28.604Z,100802.91
2022-11-29T20:17:31.399Z,100804.66
2022-11-29T20:19:34.248Z,100802.97
2022-11-29T20:21:46.052Z,100798.56
2022-11-29T20:23:49.485Z,100808.06
2022-11-29T20:25:52.246Z,100802.56
2022-11-29T20:27:58.479Z,100805.25
2022-11-29T20:30:01.298Z,100799.25
2022-11-29T20:32:03.681Z,100801.94
2022-11-29T20:34:07.227Z,100787.16
2022-11-29T20:36:34.240Z,100795.69
2022-11-29T20:38:55.367Z,100795.38
2022-11-29T20:41:16.412Z,100795.44
2022-11-29T20:43:36.655Z,100799.31
2022-11-29T20:45:39.952Z,100802.56
2022-11-29T20:47:51.970Z,100809.34
2022-11-29T20:49:55.217Z,100807.94
2022-11-29T20:52:07.231Z,100803.72
2022-11-29T20:54:12.402Z,100805.59
2022-11-29T20:56:14.712Z,100792.69
2022-11-29T20:58:18.733Z,100794.91
2022-11-29T21:00:22.187Z,100787.19
2022-11-29T21:02:25.178Z,100794.22
2022-11-29T21:04:28.016Z,100795.19
2022-11-29T21:06:34.628Z,100798.47
2022-11-29T21:08:38.045Z,100795.34
2022-11-29T21:10:40.871Z,100804.09
2022-11-29T21:12:45.822Z,100804.28
2022-11-29T21:14:48.944Z,100809.59
2022-11-29T21:16:51.872Z,100806.03
2022-11-29T21:18:58.557Z,100816.50
2022-11-29T21:21:16.233Z,100814.72
2022-11-29T21:23:30.479Z,100812.78
2022-11-29T21:25:53.154Z,100817.91
2022-11-29T21:27:57.085Z,100823.31
2022-11-29T21:30:00.363Z,100814.72
2022-11-29T21:32:03.495Z,100818.28
2022-11-29T21:34:05.929Z,100812.38
2022-11-29T21:36:09.655Z,100811.56
2022-11-29T21:38:17.355Z,100808.72
2022-11-29T21:40:19.976Z,100811.97
2022-11-29T21:42:22.316Z,100821.47
2022-11-29T21:44:24.991Z,100818.12
2022-11-29T21:46:27.321Z,100827.72
2022-11-29T21:48:35.349Z,100825.16
2022-11-29T21:50:38.188Z,100816.31
2022-11-29T21:52:40.835Z,100824.88
2022-11-29T21:54:43.029Z,100828.56
2022-11-29T21:56:45.528Z,100823.44
2022-11-29T21:58:47.777Z,100826.78
2022-11-29T22:00:50.004Z,100828.38
2022-11-29T22:02:52.776Z,100824.09
2022-11-29T22:04:55.057Z,100825.00
2022-11-29T22:06:57.280Z,100830.16
2022-11-29T22:09:00.248Z,100821.59
2022-11-29T22:11:04.649Z,100827.63
2022-11-29T22:13:06.849Z,100828.28
2022-11-29T22:15:12.439Z,100830.59
2022-11-29T22:17:14.639Z,100834.00
2022-11-29T22:19:19.342Z,100833.19
2022-11-29T22:21:21.888Z,100832.47
2022-11-29T22:23:24.109Z,100836.72
2022-11-29T22:25:26.357Z,100833.06
2022-11-29T22:27:28.873Z,100830.47
2022-11-29T22:29:31.171Z,100837.09
2022-11-29T22:31:35.330Z,100841.31
2022-11-29T22:33:38.869Z,100844.13
2022-11-29T22:35:44.908Z,100842.53
2022-11-29T22:37:47.181Z,100847.66
2022-11-29T22:39:49.651Z,100843.41
2022-11-29T22:41:54.561Z,100848.72
2022-11-29T22:43:57.506Z,100846.22
2022-11-29T22:46:16.477Z,100842.91
2022-11-29T22:48:19.067Z,100838.50
2022-11-29T22:50:21.284Z,100843.72
2022-11-29T22:52:23.975Z,100842.91
2022-11-29T22:54:26.175Z,100836.00
2022-11-29T22:56:30.920Z,100837.81
2022-11-29T22:58:34.024Z,100834.41
2022-11-29T23:00:42.258Z,100834.41
2022-11-29T23:02:44.515Z,100841.69
2022-11-29T23:04:47.265Z,100834.94
2022-11-29T23:06:49.645Z,100843.63
2022-11-29T23:08:53.735Z,100840.25
2022-11-29T23:10:57.597Z,100838.47
2022-11-29T23:12:59.857Z,100834.28
2022-11-29T23:15:02.802Z,100832.56
2022-11-29T23:17:05.286Z,100825.47
2022-11-29T23:19:07.546Z,100829.59
2022-11-29T23:21:16.405Z,100827.88
2022-11-29T23:23:18.860Z,100823.63
2022-11-29T23:25:21.066Z,100832.09
2022-11-29T23:27:23.896Z,100818.06
2022-11-29T23:29:26.350Z,100832.75
